Time;durP1;ratioP1;P1;durP2;ratioP2;P2;SDS_P1;SDS_P2;PMS_P1;PMS_P2;Temp;Humidity;BMP_temperature;BMP_pressure;BME280_temperature;BME280_humidity;BME280_pressure;Samples;Min_cycle;Max_cycle;Signal;HPM_P1;HPM_P2
2022/07/02 00:01:21;;;;;;;7.07;4.97;;;16.30;99.50;;;;;;5079119;28;20502;-82
2022/07/02 00:03:58;;;;;;;8.00;5.00;;;16.20;99.50;;;;;;5094630;28;20406;-82
2022/07/02 00:06:30;;;;;;;4.40;4.10;;;16.20;99.60;;;;;;5094536;28;20420;-82
2022/07/02 00:09:01;;;;;;;5.27;4.77;;;16.20;99.90;;;;;;5089701;28;20443;-81
2022/07/02 00:11:33;;;;;;;5.63;4.83;;;16.20;99.70;;;;;;5088467;28;20412;-83
2022/07/02 00:14:02;;;;;;;5.57;4.87;;;16.10;99.70;;;;;;5089020;28;20499;-81
2022/07/02 00:16:31;;;;;;;4.60;4.30;;;16.10;99.80;;;;;;5079728;28;20524;-82
2022/07/02 00:19:00;;;;;;;7.00;5.20;;;16.00;99.80;;;;;;5077006;28;20866;-80
2022/07/02 00:21:28;;;;;;;5.10;4.60;;;16.00;99.80;;;;;;5076152;28;20881;-81
2022/07/02 00:23:56;;;;;;;4.70;4.30;;;16.00;99.90;;;;;;5076338;28;20489;-81
2022/07/02 00:26:32;;;;;;;6.93;5.57;;;16.00;99.90;;;;;;5074948;28;20490;-81
2022/07/02 00:29:11;;;;;;;5.50;5.10;;;15.90;99.90;;;;;;5076907;28;20465;-82
2022/07/02 00:31:40;;;;;;;5.23;4.70;;;15.90;99.90;;;;;;5075805;28;20429;-82
2022/07/02 00:34:09;;;;;;;5.50;5.00;;;15.90;99.90;;;;;;5079560;28;20424;-82
2022/07/02 00:36:38;;;;;;;5.33;4.93;;;15.90;99.90;;;;;;5077983;28;20427;-82
2022/07/02 00:39:07;;;;;;;6.00;5.27;;;15.80;99.90;;;;;;5076413;28;20822;-82
2022/07/02 00:41:36;;;;;;;7.20;6.50;;;15.80;99.90;;;;;;5077092;28;20481;-81
2022/07/02 00:44:07;;;;;;;7.20;5.60;;;15.80;99.90;;;;;;5076209;28;20489;-82
2022/07/02 00:46:37;;;;;;;5.70;5.10;;;15.80;99.90;;;;;;5075267;28;20422;-82
2022/07/02 00:49:05;;;;;;;5.60;5.20;;;15.70;99.90;;;;;;5075774;28;20488;-82
2022/07/02 00:51:34;;;;;;;6.70;5.30;;;15.70;99.90;;;;;;5076999;28;20457;-82
2022/07/02 00:54:03;;;;;;;5.40;5.00;;;15.70;99.90;;;;;;5080187;28;20423;-82
2022/07/02 00:56:32;;;;;;;5.40;5.00;;;15.60;99.90;;;;;;5082415;28;20480;-82
2022/07/02 00:59:03;;;;;;;6.00;5.50;;;15.60;99.90;;;;;;5081363;28;20443;-81
2022/07/02 01:01:33;;;;;;;5.73;5.13;;;15.60;99.90;;;;;;5080884;28;20481;-82
2022/07/02 01:04:02;;;;;;;5.63;5.03;;;15.60;99.90;;;;;;5082190;28;20415;-82
2022/07/02 01:06:33;;;;;;;5.60;5.10;;;15.60;99.90;;;;;;5081233;28;20411;-82
2022/07/02 01:11:50;;;;;;;6.77;6.20;;;15.50;99.90;;;;;;5080702;28;20451;-82
2022/07/02 01:14:19;;;;;;;6.00;5.50;;;15.50;99.90;;;;;;5080286;28;20521;-82
2022/07/02 01:16:49;;;;;;;5.53;5.10;;;15.50;99.90;;;;;;5079984;28;20419;-82
2022/07/02 01:19:20;;;;;;;6.10;5.63;;;15.40;99.90;;;;;;5080074;28;20534;-82
2022/07/02 01:22:22;;;;;;;5.80;5.40;;;15.40;99.90;;;;;;5080282;28;20925;-82
2022/07/02 01:24:54;;;;;;;6.63;5.57;;;15.40;99.90;;;;;;5077246;28;20420;-82
2022/07/02 01:27:23;;;;;;;6.13;5.67;;;15.30;99.90;;;;;;5082328;28;20453;-83
2022/07/02 01:29:52;;;;;;;5.47;5.03;;;15.30;99.90;;;;;;5080899;28;20477;-82
2022/07/02 01:32:20;;;;;;;5.80;5.33;;;15.30;99.90;;;;;;5081111;28;20488;-82
2022/07/02 01:34:51;;;;;;;6.57;5.53;;;15.30;99.90;;;;;;5080915;28;20939;-81
2022/07/02 01:37:21;;;;;;;7.37;6.60;;;15.20;99.90;;;;;;5082628;28;20495;-81
2022/07/02 01:39:51;;;;;;;6.33;5.67;;;15.20;99.90;;;;;;5080374;28;20785;-82
2022/07/02 01:42:19;;;;;;;6.80;6.27;;;15.20;99.90;;;;;;5080342;28;20468;-81
2022/07/02 01:44:48;;;;;;;6.73;6.07;;;15.20;99.90;;;;;;5079985;28;20445;-81
2022/07/02 01:47:16;;;;;;;7.03;6.50;;;15.10;99.90;;;;;;5081244;28;20437;-82
2022/07/02 01:49:45;;;;;;;6.73;6.23;;;15.10;99.90;;;;;;5079254;28;20830;-82
2022/07/02 01:52:15;;;;;;;6.20;5.63;;;15.10;99.90;;;;;;5079269;28;20502;-81
2022/07/02 01:54:44;;;;;;;7.63;6.43;;;15.10;99.90;;;;;;5079955;28;20441;-82
2022/07/02 01:57:14;;;;;;;7.40;6.80;;;15.10;99.90;;;;;;5079035;28;20537;-83
2022/07/02 01:59:42;;;;;;;6.50;6.00;;;15.00;99.90;;;;;;5081057;28;20450;-81
2022/07/02 02:02:11;;;;;;;7.33;6.53;;;15.00;99.90;;;;;;5079446;28;20879;-82
2022/07/02 02:04:39;;;;;;;6.97;6.43;;;15.00;99.90;;;;;;5078780;28;20515;-83
2022/07/02 02:07:08;;;;;;;7.67;6.63;;;14.90;99.90;;;;;;5081450;28;20408;-82
2022/07/02 02:09:36;;;;;;;7.30;6.70;;;14.90;99.90;;;;;;5079155;28;20816;-82
2022/07/02 02:12:06;;;;;;;8.23;7.43;;;14.90;99.90;;;;;;5080339;28;20447;-83
2022/07/02 02:14:36;;;;;;;7.63;6.83;;;14.90;99.90;;;;;;5078313;28;20465;-82
2022/07/02 02:17:05;;;;;;;7.80;6.97;;;14.90;99.90;;;;;;5078387;28;20770;-81
2022/07/02 02:19:33;;;;;;;7.37;6.77;;;14.90;99.90;;;;;;5079135;28;20459;-81
2022/07/02 02:22:02;;;;;;;7.37;6.77;;;14.80;99.90;;;;;;5079331;28;20444;-81
2022/07/02 02:24:30;;;;;;;7.93;7.20;;;14.80;99.90;;;;;;5078936;28;20557;-80
2022/07/02 02:26:59;;;;;;;7.00;6.50;;;14.80;99.90;;;;;;5078795;28;20950;-81
2022/07/02 02:29:28;;;;;;;7.47;6.87;;;14.80;99.90;;;;;;5079463;28;20446;-81
2022/07/02 02:31:57;;;;;;;6.90;6.40;;;14.70;99.90;;;;;;5078731;28;20465;-80
2022/07/02 02:34:26;;;;;;;8.50;7.80;;;14.70;99.90;;;;;;5078678;28;20457;-81
2022/07/02 02:36:54;;;;;;;8.50;7.70;;;14.70;99.90;;;;;;5079126;28;20507;-82
2022/07/02 02:39:22;;;;;;;9.70;8.90;;;14.70;99.90;;;;;;5082188;28;20461;-81
2022/07/02 02:41:51;;;;;;;9.27;8.53;;;14.60;99.90;;;;;;5086348;28;20449;-81
2022/07/02 02:44:19;;;;;;;8.63;7.93;;;14.60;99.90;;;;;;5087936;28;20416;-81
2022/07/02 02:46:48;;;;;;;8.93;8.20;;;14.60;99.90;;;;;;5088495;28;20461;-81
2022/07/02 02:49:17;;;;;;;8.87;8.17;;;14.60;99.90;;;;;;5089794;28;20572;-82
2022/07/02 02:51:46;;;;;;;8.80;7.90;;;14.50;99.90;;;;;;5093730;28;20495;-83
2022/07/02 02:54:14;;;;;;;8.27;7.67;;;14.50;99.90;;;;;;5091634;28;20423;-82
2022/07/02 02:56:43;;;;;;;9.33;8.53;;;14.50;99.90;;;;;;5093826;28;20449;-78
2022/07/02 02:59:13;;;;;;;8.30;7.60;;;14.50;99.90;;;;;;5093252;28;20496;-81
2022/07/02 03:01:42;;;;;;;9.77;9.00;;;14.50;99.90;;;;;;5095199;28;20449;-81
2022/07/02 03:04:10;;;;;;;8.83;8.03;;;14.40;99.90;;;;;;5094329;28;20449;-83
2022/07/02 03:06:40;;;;;;;8.13;7.50;;;14.40;99.90;;;;;;5097649;28;20471;-79
2022/07/02 03:09:08;;;;;;;10.83;8.63;;;14.40;99.90;;;;;;5088666;28;21000;-82
2022/07/02 03:11:36;;;;;;;9.07;8.30;;;14.40;99.90;;;;;;5094937;28;20459;-81
2022/07/02 03:14:05;;;;;;;9.27;8.37;;;14.40;99.90;;;;;;5091039;28;20462;-82
2022/07/02 03:16:33;;;;;;;8.30;7.70;;;14.40;99.90;;;;;;5084441;28;20427;-82
2022/07/02 03:19:02;;;;;;;9.40;8.60;;;14.30;99.90;;;;;;5090308;28;20465;-82
2022/07/02 03:21:31;;;;;;;9.40;8.50;;;14.30;99.90;;;;;;5089075;28;20480;-83
2022/07/02 03:24:01;;;;;;;9.10;8.40;;;14.30;99.90;;;;;;5084388;28;20454;-83
2022/07/02 03:26:29;;;;;;;8.40;7.80;;;14.30;99.90;;;;;;5081667;28;20449;-82
2022/07/02 03:28:58;;;;;;;9.10;8.30;;;14.30;99.90;;;;;;5081164;28;20438;-81
2022/07/02 03:31:26;;;;;;;12.37;11.27;;;14.30;99.90;;;;;;5082836;28;20468;-81
2022/07/02 03:33:55;;;;;;;9.40;8.60;;;14.30;99.90;;;;;;5081847;28;20433;-83
2022/07/02 03:36:23;;;;;;;9.30;8.60;;;14.30;99.90;;;;;;5082872;28;20468;-82
2022/07/02 03:38:51;;;;;;;9.70;8.90;;;14.20;99.90;;;;;;5081344;28;20832;-81
2022/07/02 03:41:21;;;;;;;9.83;9.03;;;14.20;99.90;;;;;;5081958;28;20455;-81
2022/07/02 03:43:50;;;;;;;9.10;8.30;;;14.20;99.90;;;;;;5081250;28;20449;-81
2022/07/02 03:46:18;;;;;;;10.33;9.43;;;14.20;99.90;;;;;;5082898;28;20427;-81
2022/07/02 03:48:47;;;;;;;9.67;8.87;;;14.20;99.90;;;;;;5082692;28;20435;-83
2022/07/02 03:51:15;;;;;;;10.60;9.70;;;14.20;99.90;;;;;;5083329;28;20469;-81
2022/07/02 03:53:43;;;;;;;9.67;8.87;;;14.20;99.90;;;;;;5079838;28;20449;-80
2022/07/02 03:56:12;;;;;;;9.20;8.33;;;14.20;99.90;;;;;;5080620;28;20479;-81
2022/07/02 03:58:41;;;;;;;9.77;9.03;;;14.20;99.90;;;;;;5082494;28;20526;-83
2022/07/02 04:01:10;;;;;;;10.03;9.13;;;14.20;99.90;;;;;;5078546;28;20483;-83
2022/07/02 04:03:38;;;;;;;9.90;9.17;;;14.20;99.90;;;;;;5079550;28;20960;-81
2022/07/02 04:06:06;;;;;;;9.80;9.03;;;14.20;99.90;;;;;;5083022;28;20463;-83
2022/07/02 04:08:35;;;;;;;9.83;9.13;;;14.10;99.90;;;;;;5081245;28;20560;-81
2022/07/02 04:11:03;;;;;;;10.00;9.10;;;14.10;99.90;;;;;;5082344;28;20470;-82
2022/07/02 04:13:32;;;;;;;10.90;9.67;;;14.10;99.90;;;;;;5080455;28;20462;-81
2022/07/02 04:16:01;;;;;;;11.20;9.20;;;14.10;99.90;;;;;;5081349;28;20453;-82
2022/07/02 04:18:30;;;;;;;11.00;10.10;;;14.20;99.90;;;;;;5080594;28;20849;-82
2022/07/02 04:20:58;;;;;;;11.03;9.97;;;14.20;99.90;;;;;;5079784;28;20460;-82
2022/07/02 04:23:26;;;;;;;9.37;8.77;;;14.10;99.90;;;;;;5080724;28;20514;-80
2022/07/02 04:25:55;;;;;;;9.80;9.00;;;14.20;99.90;;;;;;5082288;28;20469;-82
2022/07/02 04:28:24;;;;;;;10.30;9.50;;;14.10;99.90;;;;;;5079788;28;21116;-82
2022/07/02 04:30:53;;;;;;;10.23;9.53;;;14.20;99.90;;;;;;5080189;28;20576;-83
2022/07/02 04:33:22;;;;;;;9.30;8.67;;;14.20;99.90;;;;;;5079134;28;20820;-80
2022/07/02 04:35:51;;;;;;;10.50;9.57;;;14.20;99.90;;;;;;5079081;28;20457;-80
2022/07/02 04:38:19;;;;;;;11.03;9.97;;;14.20;99.90;;;;;;5079163;28;20445;-82
2022/07/02 04:40:47;;;;;;;9.73;8.93;;;14.20;99.90;;;;;;5079263;28;20457;-82
2022/07/02 04:43:15;;;;;;;10.60;9.60;;;14.20;99.90;;;;;;5079200;28;20422;-80
2022/07/02 04:45:43;;;;;;;10.50;9.70;;;14.30;99.90;;;;;;5081069;28;20944;-81
2022/07/02 04:48:12;;;;;;;9.87;8.87;;;14.30;99.90;;;;;;5079682;28;20929;-83
2022/07/02 04:50:41;;;;;;;10.43;9.63;;;14.30;99.90;;;;;;5079474;28;20453;-83
2022/07/02 04:53:10;;;;;;;9.50;8.70;;;14.30;99.90;;;;;;5078900;28;20491;-84
2022/07/02 04:55:38;;;;;;;9.43;8.73;;;14.30;99.90;;;;;;5080587;28;20479;-80
2022/07/02 04:58:07;;;;;;;9.50;8.70;;;14.40;99.90;;;;;;5080370;28;20503;-80
2022/07/02 05:00:36;;;;;;;10.67;9.67;;;14.40;99.90;;;;;;5079170;28;20450;-81
2022/07/02 05:03:04;;;;;;;9.80;8.90;;;14.50;99.90;;;;;;5078869;28;20442;-81
2022/07/02 05:05:32;;;;;;;10.23;9.33;;;14.50;99.90;;;;;;5079374;28;20953;-80
2022/07/02 05:08:02;;;;;;;10.50;8.93;;;14.50;99.90;;;;;;5078920;28;20431;-81
2022/07/02 05:10:30;;;;;;;9.93;9.10;;;14.50;99.90;;;;;;5079939;28;20446;-80
2022/07/02 05:12:58;;;;;;;9.10;8.30;;;14.60;99.90;;;;;;5080614;28;20485;-81
2022/07/02 05:15:27;;;;;;;9.80;9.00;;;14.60;99.90;;;;;;5078526;28;20514;-81
2022/07/02 05:17:55;;;;;;;9.13;8.30;;;14.60;99.90;;;;;;5077545;28;20489;-80
2022/07/02 05:20:23;;;;;;;9.30;8.50;;;14.70;99.90;;;;;;5078255;28;20498;-80
2022/07/02 05:22:51;;;;;;;9.33;8.43;;;14.80;99.90;;;;;;5079490;28;20433;-82
2022/07/02 05:25:21;;;;;;;8.90;8.27;;;14.80;99.90;;;;;;5078155;28;20483;-80
2022/07/02 05:27:49;;;;;;;9.03;8.23;;;14.80;99.90;;;;;;5078647;28;20427;-80
2022/07/02 05:30:18;;;;;;;8.87;8.07;;;14.90;99.90;;;;;;5078309;28;20472;-80
2022/07/02 05:32:46;;;;;;;7.93;7.33;;;15.00;99.90;;;;;;5077270;28;20993;-82
2022/07/02 05:35:14;;;;;;;9.13;8.23;;;15.10;99.90;;;;;;5078100;28;20462;-81
2022/07/02 05:37:43;;;;;;;8.03;7.33;;;15.20;99.90;;;;;;5077357;28;20435;-81
2022/07/02 05:40:12;;;;;;;7.17;6.53;;;15.30;99.90;;;;;;5081530;28;21019;-83
2022/07/02 05:42:42;;;;;;;8.33;7.50;;;15.50;99.90;;;;;;5081883;28;20469;-81
2022/07/02 05:45:11;;;;;;;9.33;7.37;;;15.60;99.90;;;;;;5083192;28;20460;-81
2022/07/02 05:47:39;;;;;;;7.63;6.90;;;15.80;99.90;;;;;;5084378;28;20463;-80
2022/07/02 05:50:08;;;;;;;7.77;6.60;;;16.10;99.90;;;;;;5084816;28;20468;-83
2022/07/02 05:52:37;;;;;;;9.93;7.20;;;16.30;99.90;;;;;;5083743;28;21003;-82
2022/07/02 05:55:06;;;;;;;8.43;7.10;;;16.60;99.90;;;;;;5085263;28;20408;-81
2022/07/02 05:57:35;;;;;;;10.63;7.63;;;16.80;99.90;;;;;;5083355;28;20987;-81
2022/07/02 06:00:06;;;;;;;8.80;6.67;;;17.10;99.90;;;;;;5082835;28;20493;-82
2022/07/02 06:03:24;;;;;;;8.20;6.07;;;17.40;99.90;;;;;;5080555;28;20479;-83
2022/07/02 06:08:55;;;;;;;5.60;4.90;;;18.20;99.90;;;;;;5079846;28;20473;-81
2022/07/02 06:11:23;;;;;;;6.47;4.37;;;18.50;99.90;;;;;;5079184;28;20446;-86
2022/07/02 06:13:51;;;;;;;4.67;3.97;;;18.80;99.90;;;;;;5079246;28;20910;-83
2022/07/02 06:16:21;;;;;;;4.27;3.77;;;19.00;99.90;;;;;;5078706;28;20437;-79
2022/07/02 06:18:49;;;;;;;7.17;4.20;;;19.30;99.90;;;;;;5082029;28;20493;-80
2022/07/02 06:21:18;;;;;;;5.40;3.93;;;19.50;99.90;;;;;;5076825;28;20504;-80
2022/07/02 06:23:46;;;;;;;4.67;3.33;;;19.70;99.90;;;;;;5078540;28;20433;-80
2022/07/02 06:26:14;;;;;;;6.60;3.57;;;20.00;99.90;;;;;;5078050;28;20484;-79
2022/07/02 06:28:42;;;;;;;10.90;6.07;;;20.30;99.90;;;;;;5077048;28;20884;-80
2022/07/02 06:31:11;;;;;;;5.30;3.23;;;20.50;99.90;;;;;;5075888;28;20476;-80
2022/07/02 06:33:41;;;;;;;4.17;3.37;;;20.80;99.90;;;;;;5075407;28;20476;-80
2022/07/02 06:36:14;;;;;;;4.30;2.50;;;21.00;99.90;;;;;;5080342;28;20851;-80
2022/07/02 06:38:42;;;;;;;4.47;2.70;;;21.30;99.90;;;;;;5083304;28;20883;-80
2022/07/02 06:42:18;;;;;;;3.77;2.77;;;21.50;99.90;;;;;;5082472;28;20919;-80
2022/07/02 06:44:05;;;;;;;4.53;3.40;;;21.70;99.90;;;;;;5082099;28;20802;-80
2022/07/02 06:46:34;;;;;;;3.50;2.70;;;21.90;99.90;;;;;;5081631;28;20449;-80
2022/07/02 06:49:04;;;;;;;3.67;2.80;;;22.10;99.90;;;;;;5080786;28;20469;-81
2022/07/02 06:51:32;;;;;;;5.67;2.70;;;22.30;99.90;;;;;;5084597;28;20429;-81
2022/07/02 06:54:01;;;;;;;4.63;2.47;;;22.40;99.90;;;;;;5084336;28;20469;-81
2022/07/02 06:56:32;;;;;;;4.53;2.83;;;22.60;99.60;;;;;;5081413;28;20449;-83
2022/07/02 06:59:00;;;;;;;7.70;2.40;;;22.70;99.50;;;;;;5081233;28;20476;-83
2022/07/02 07:01:28;;;;;;;2.80;2.30;;;22.80;99.00;;;;;;5081080;28;20524;-82
2022/07/02 07:03:56;;;;;;;4.83;3.10;;;22.90;98.90;;;;;;5079162;28;20457;-83
2022/07/02 07:06:26;;;;;;;4.67;3.23;;;23.10;98.60;;;;;;5079552;28;20503;-83
2022/07/02 07:08:54;;;;;;;6.63;3.83;;;23.20;98.20;;;;;;5078236;28;20480;-78
2022/07/02 07:11:23;;;;;;;5.17;3.73;;;23.30;98.10;;;;;;5079668;28;20429;-82
2022/07/02 07:13:51;;;;;;;5.23;3.93;;;23.40;97.80;;;;;;5078714;28;20469;-78
2022/07/02 07:16:20;;;;;;;4.50;3.60;;;23.50;97.60;;;;;;5078667;28;20980;-80
2022/07/02 07:18:49;;;;;;;7.20;3.80;;;23.60;97.30;;;;;;5077216;28;20904;-82
2022/07/02 07:21:18;;;;;;;5.23;3.03;;;23.60;97.20;;;;;;5076497;28;20475;-80
2022/07/02 07:23:48;;;;;;;7.23;3.47;;;23.70;97.20;;;;;;5076990;28;20453;-80
2022/07/02 07:26:16;;;;;;;5.80;2.93;;;23.80;97.10;;;;;;5079637;28;20437;-81
2022/07/02 07:28:44;;;;;;;4.20;3.30;;;24.00;96.90;;;;;;5078003;28;20465;-81
2022/07/02 07:31:12;;;;;;;4.73;3.03;;;24.10;96.60;;;;;;5076375;28;20451;-81
2022/07/02 07:33:43;;;;;;;6.50;3.50;;;24.20;96.40;;;;;;5076133;28;20472;-80
2022/07/02 07:36:12;;;;;;;4.50;3.57;;;24.30;96.20;;;;;;5077058;28;20429;-81
2022/07/02 07:38:40;;;;;;;5.33;3.70;;;24.40;96.10;;;;;;5077564;28;20540;-83
2022/07/02 07:41:11;;;;;;;6.87;4.07;;;24.50;96.00;;;;;;5078051;28;20448;-83
2022/07/02 07:43:39;;;;;;;6.27;3.30;;;24.50;95.70;;;;;;5078283;28;20434;-82
2022/07/02 07:46:08;;;;;;;5.63;3.03;;;24.70;95.60;;;;;;5077467;28;20433;-80
2022/07/02 07:48:36;;;;;;;4.63;2.73;;;24.70;95.40;;;;;;5077430;28;20449;-78
2022/07/02 07:51:10;;;;;;;6.17;3.03;;;24.80;95.30;;;;;;5075601;28;20448;-82
2022/07/02 07:53:39;;;;;;;6.40;3.20;;;24.90;95.30;;;;;;5075484;28;20469;-80
2022/07/02 07:56:07;;;;;;;5.40;4.00;;;24.90;95.10;;;;;;5075533;28;20455;-79
2022/07/02 07:58:37;;;;;;;4.43;2.87;;;25.00;94.90;;;;;;5079493;28;20564;-79
2022/07/02 08:01:05;;;;;;;5.90;3.47;;;25.10;94.70;;;;;;5081972;28;20444;-80
2022/07/02 08:03:33;;;;;;;5.97;3.30;;;25.20;94.50;;;;;;5080916;28;20433;-83
2022/07/02 08:06:03;;;;;;;3.47;3.17;;;25.30;94.30;;;;;;5081336;28;20471;-83
2022/07/02 08:08:36;;;;;;;4.70;3.30;;;25.30;94.10;;;;;;5081297;28;20572;-82
2022/07/02 08:11:07;;;;;;;4.93;2.80;;;25.30;93.90;;;;;;5079596;28;20945;-81
2022/07/02 08:13:37;;;;;;;5.53;2.87;;;25.30;93.90;;;;;;5076574;28;20476;-76
2022/07/02 08:16:05;;;;;;;6.70;3.50;;;25.40;94.00;;;;;;5073361;28;20441;-77
2022/07/02 08:18:34;;;;;;;3.90;2.73;;;25.50;93.70;;;;;;5075552;28;20469;-78
2022/07/02 08:21:02;;;;;;;5.40;3.10;;;25.60;93.70;;;;;;5078210;28;20422;-79
2022/07/02 08:23:31;;;;;;;3.23;2.57;;;25.60;93.80;;;;;;5076992;28;20441;-78
2022/07/02 08:25:59;;;;;;;6.90;2.90;;;25.60;93.10;;;;;;5075602;28;20437;-77
2022/07/02 08:28:27;;;;;;;4.20;2.90;;;25.60;93.10;;;;;;5074559;28;21062;-77
2022/07/02 08:30:58;;;;;;;3.90;2.70;;;25.60;92.50;;;;;;5077253;28;20465;-81
2022/07/02 08:33:27;;;;;;;4.57;2.60;;;25.50;92.40;;;;;;5081909;28;20488;-79
2022/07/02 08:35:55;;;;;;;7.43;2.93;;;25.50;92.50;;;;;;5079352;28;20540;-77
2022/07/02 08:38:23;;;;;;;3.27;2.33;;;25.60;92.40;;;;;;5077141;28;20457;-80
2022/07/02 08:40:52;;;;;;;4.20;2.80;;;25.70;92.10;;;;;;5077120;28;20816;-84
2022/07/02 08:43:25;;;;;;;4.50;3.57;;;25.70;91.90;;;;;;5076467;28;20532;-83
2022/07/02 08:45:54;;;;;;;4.77;2.97;;;25.70;91.70;;;;;;5075965;28;20468;-82
2022/07/02 08:48:25;;;;;;;3.50;2.67;;;25.70;91.70;;;;;;5076158;28;20484;-81
2022/07/02 08:50:56;;;;;;;4.77;2.40;;;25.70;91.40;;;;;;5079549;28;20449;-83
2022/07/02 08:53:25;;;;;;;4.70;2.90;;;25.70;91.00;;;;;;5077354;28;20480;-80
2022/07/02 08:55:55;;;;;;;4.53;2.80;;;25.70;91.00;;;;;;5080940;28;20461;-83
2022/07/02 08:58:24;;;;;;;8.77;4.47;;;25.70;90.90;;;;;;5078697;28;20467;-80
2022/07/02 09:00:53;;;;;;;4.97;2.60;;;25.60;90.80;;;;;;5078300;28;20464;-85
2022/07/02 09:03:23;;;;;;;4.23;2.73;;;25.50;90.40;;;;;;5077544;28;20459;-81
2022/07/02 09:05:52;;;;;;;4.40;2.70;;;25.40;90.00;;;;;;5077102;28;20483;-79
2022/07/02 09:08:25;;;;;;;6.37;3.10;;;25.30;89.70;;;;;;5079267;28;20469;-81
2022/07/02 09:10:55;;;;;;;4.80;2.40;;;25.20;89.60;;;;;;5072442;28;20525;-85
2022/07/02 09:13:25;;;;;;;2.87;2.10;;;25.10;89.30;;;;;;5068239;28;20503;-85
2022/07/02 09:15:55;;;;;;;4.20;1.90;;;25.20;89.00;;;;;;5062333;28;20540;-84
2022/07/02 09:18:25;;;;;;;3.40;1.67;;;25.20;88.40;;;;;;5066083;28;20815;-86
2022/07/02 09:20:53;;;;;;;2.30;1.40;;;25.30;88.30;;;;;;5073080;28;20452;-85
2022/07/02 09:23:23;;;;;;;3.57;2.03;;;25.40;88.20;;;;;;5076404;28;20455;-83
2022/07/02 09:25:52;;;;;;;4.83;2.60;;;25.50;87.30;;;;;;5081268;28;20489;-84
2022/07/02 09:28:20;;;;;;;3.60;2.00;;;25.50;86.60;;;;;;5081796;28;20481;-80
2022/07/02 09:30:49;;;;;;;3.97;2.53;;;25.60;87.30;;;;;;5080767;28;20488;-83
2022/07/02 09:33:35;;;;;;;4.53;1.70;;;25.60;87.60;;;;;;5082082;28;20449;-83
2022/07/02 09:36:12;;;;;;;3.07;1.67;;;25.70;87.90;;;;;;5084792;28;20443;-83
2022/07/02 09:38:45;;;;;;;2.70;1.90;;;25.60;87.00;;;;;;5082100;28;20468;-83
2022/07/02 09:41:15;;;;;;;3.83;1.40;;;25.50;87.00;;;;;;5082663;28;20547;-82
2022/07/02 09:43:43;;;;;;;4.00;2.10;;;25.50;86.60;;;;;;5082122;28;20896;-81
2022/07/02 09:46:16;;;;;;;2.97;1.77;;;25.40;85.90;;;;;;5082996;28;20957;-80
2022/07/02 09:48:46;;;;;;;3.20;2.17;;;25.30;85.40;;;;;;5080722;28;20877;-82
2022/07/02 09:51:16;;;;;;;2.83;1.70;;;25.40;85.70;;;;;;5081490;28;20457;-82
2022/07/02 09:53:49;;;;;;;3.47;1.63;;;25.50;85.60;;;;;;5082233;28;20434;-82
2022/07/02 09:56:18;;;;;;;2.40;1.50;;;25.60;84.50;;;;;;5082166;28;20476;-85
2022/07/02 09:58:46;;;;;;;3.60;1.73;;;25.70;84.70;;;;;;5082028;28;20521;-82
2022/07/02 10:01:19;;;;;;;3.40;1.50;;;25.80;84.10;;;;;;5082351;28;20923;-84
2022/07/02 10:03:49;;;;;;;2.97;1.40;;;25.90;84.00;;;;;;5081523;28;20433;-82
2022/07/02 10:06:19;;;;;;;2.20;1.00;;;25.90;83.60;;;;;;5080084;28;20441;-82
2022/07/02 10:08:55;;;;;;;2.93;1.57;;;25.90;82.00;;;;;;5080259;28;20469;-82
2022/07/02 10:11:24;;;;;;;3.20;1.67;;;25.70;81.10;;;;;;5081441;28;20421;-82
2022/07/02 10:13:56;;;;;;;2.17;1.37;;;25.70;81.30;;;;;;5079883;28;20446;-83
2022/07/02 10:16:26;;;;;;;3.00;1.60;;;25.70;81.40;;;;;;5079892;28;20463;-82
2022/07/02 10:18:58;;;;;;;4.20;1.50;;;25.80;81.20;;;;;;5079995;28;20465;-82
2022/07/02 10:21:29;;;;;;;4.17;1.80;;;25.80;80.70;;;;;;5079981;28;20441;-83
2022/07/02 10:23:58;;;;;;;3.13;1.60;;;25.90;80.60;;;;;;5080285;28;20473;-82
2022/07/02 10:26:27;;;;;;;3.90;1.47;;;26.00;81.10;;;;;;5079561;28;20543;-83
2022/07/02 10:28:56;;;;;;;2.67;1.43;;;26.10;81.00;;;;;;5081535;28;20558;-81
2022/07/02 10:31:24;;;;;;;2.13;1.23;;;26.20;80.80;;;;;;5081506;28;20942;-83
2022/07/02 10:33:55;;;;;;;2.50;1.97;;;26.20;80.40;;;;;;5080882;28;20515;-81
2022/07/02 10:36:24;;;;;;;23.37;21.47;;;26.10;79.50;;;;;;5080814;28;20530;-81
2022/07/02 10:39:05;;;;;;;4.33;1.67;;;26.00;79.50;;;;;;5080860;28;20457;-82
2022/07/02 10:41:34;;;;;;;4.60;2.50;;;26.00;78.90;;;;;;5081206;28;20421;-81
2022/07/02 10:44:03;;;;;;;4.10;1.90;;;26.00;79.20;;;;;;5079650;28;20449;-82
2022/07/02 10:46:36;;;;;;;2.27;1.70;;;26.00;79.80;;;;;;5080912;28;20539;-81
2022/07/02 10:49:05;;;;;;;4.83;1.77;;;26.10;79.60;;;;;;5079736;28;20582;-82
2022/07/02 10:51:35;;;;;;;2.87;1.80;;;26.20;79.70;;;;;;5080126;28;20502;-82
2022/07/02 10:54:07;;;;;;;2.77;1.50;;;26.20;79.70;;;;;;5080020;28;21011;-82
2022/07/02 10:56:45;;;;;;;5.70;4.87;;;26.20;79.50;;;;;;5080615;28;20464;-80
2022/07/02 10:59:21;;;;;;;8.67;7.20;;;26.30;80.10;;;;;;5081884;28;20506;-82
2022/07/02 11:02:01;;;;;;;4.67;3.60;;;26.40;79.20;;;;;;5079594;28;20433;-81
2022/07/02 11:04:30;;;;;;;11.10;10.00;;;26.50;79.70;;;;;;5079714;28;20432;-82
2022/07/02 11:07:06;;;;;;;2.77;2.47;;;26.50;79.80;;;;;;5079807;28;20488;-83
2022/07/02 11:09:47;;;;;;;5.53;2.30;;;26.60;79.30;;;;;;5079092;28;21008;-81
2022/07/02 11:12:19;;;;;;;95.90;88.63;;;26.60;78.80;;;;;;5078560;28;20548;-82
2022/07/02 11:14:57;;;;;;;2.30;1.90;;;26.70;79.90;;;;;;5075193;28;20488;-82
2022/07/02 11:17:49;;;;;;;2.73;2.53;;;26.70;78.20;;;;;;5076110;28;20969;-80
2022/07/02 11:20:25;;;;;;;4.30;1.90;;;26.60;78.70;;;;;;5074852;28;20900;-84
2022/07/02 11:22:55;;;;;;;4.23;2.27;;;26.60;78.40;;;;;;5078962;28;20441;-82
2022/07/02 11:25:25;;;;;;;4.57;1.90;;;26.50;78.50;;;;;;5080933;28;20442;-83
2022/07/02 11:27:58;;;;;;;3.90;1.70;;;26.50;78.30;;;;;;5085492;28;20422;-81
2022/07/02 11:30:28;;;;;;;4.83;2.20;;;26.60;77.90;;;;;;5083653;28;20461;-82
2022/07/02 11:32:56;;;;;;;2.43;1.93;;;26.60;77.80;;;;;;5082478;28;20441;-82
2022/07/02 11:35:25;;;;;;;2.83;1.80;;;26.70;77.60;;;;;;5082176;28;20491;-81
2022/07/02 11:37:58;;;;;;;2.57;1.77;;;26.80;77.60;;;;;;5077450;28;20445;-80
2022/07/02 11:40:27;;;;;;;3.30;1.70;;;26.70;77.90;;;;;;5077041;28;20878;-80
2022/07/02 11:42:56;;;;;;;4.20;1.97;;;26.70;77.80;;;;;;5078944;28;20527;-80
2022/07/02 11:45:24;;;;;;;3.80;2.00;;;26.70;77.50;;;;;;5079527;28;20508;-80
2022/07/02 11:47:53;;;;;;;5.00;2.13;;;26.70;76.40;;;;;;5079882;28;20812;-81
2022/07/02 11:50:28;;;;;;;3.00;1.70;;;26.60;76.30;;;;;;5079891;28;20489;-81
2022/07/02 11:52:57;;;;;;;2.27;1.50;;;26.60;76.10;;;;;;5078494;28;20440;-80
2022/07/02 11:55:26;;;;;;;3.03;1.40;;;26.70;76.40;;;;;;5079186;28;20817;-81
2022/07/02 11:57:55;;;;;;;2.00;1.50;;;26.80;76.30;;;;;;5078715;28;20547;-83
2022/07/02 12:00:30;;;;;;;5.37;2.00;;;26.80;76.50;;;;;;5078537;28;20492;-81
2022/07/02 12:03:07;;;;;;;2.03;1.50;;;26.80;76.60;;;;;;5078532;28;20469;-81
2022/07/02 12:05:36;;;;;;;2.67;1.70;;;26.80;76.80;;;;;;5077792;28;20499;-81
2022/07/02 12:08:07;;;;;;;1.93;1.47;;;26.80;76.80;;;;;;5077074;28;20899;-81
2022/07/02 12:10:46;;;;;;;5.77;1.90;;;26.90;76.30;;;;;;5076368;28;20954;-80
2022/07/02 12:13:14;;;;;;;2.13;1.20;;;26.80;74.50;;;;;;5076421;28;20440;-80
2022/07/02 12:15:44;;;;;;;2.77;1.47;;;26.70;74.80;;;;;;5076889;28;20496;-81
2022/07/02 12:18:17;;;;;;;3.37;1.50;;;26.70;75.20;;;;;;5076552;28;20453;-81
2022/07/02 12:20:45;;;;;;;3.07;1.90;;;26.80;75.10;;;;;;5076905;28;20548;-80
2022/07/02 12:23:17;;;;;;;3.63;2.87;;;26.80;75.20;;;;;;5077549;28;20421;-79
2022/07/02 12:25:48;;;;;;;2.13;1.50;;;26.80;75.20;;;;;;5076213;28;20481;-79
2022/07/02 12:31:05;;;;;;;3.13;1.80;;;26.70;74.00;;;;;;5076492;28;20449;-80
2022/07/02 12:33:33;;;;;;;3.00;1.73;;;26.70;74.70;;;;;;5076711;28;20477;-80
2022/07/02 12:36:04;;;;;;;2.97;1.70;;;26.70;74.30;;;;;;5077391;28;20468;-80
2022/07/02 12:38:42;;;;;;;2.07;1.67;;;26.70;74.40;;;;;;5078245;28;20485;-80
2022/07/02 12:41:13;;;;;;;1.90;1.43;;;26.60;74.10;;;;;;5077167;28;20441;-81
2022/07/02 12:43:52;;;;;;;2.17;1.47;;;26.70;74.30;;;;;;5075834;28;20494;-79
2022/07/02 12:46:20;;;;;;;2.43;1.40;;;26.80;74.30;;;;;;5076758;28;20445;-80
2022/07/02 12:48:49;;;;;;;3.20;1.60;;;26.90;74.40;;;;;;5078092;28;20469;-81
2022/07/02 12:51:17;;;;;;;3.20;1.57;;;27.00;73.90;;;;;;5081908;28;20440;-80
2022/07/02 12:53:55;;;;;;;2.37;1.50;;;27.10;73.40;;;;;;5080346;28;20480;-81
2022/07/02 12:56:25;;;;;;;3.10;1.70;;;27.10;73.70;;;;;;5080776;28;20510;-80
2022/07/02 12:58:53;;;;;;;2.20;1.23;;;27.20;74.30;;;;;;5079521;28;20464;-80
2022/07/02 13:01:22;;;;;;;2.70;1.63;;;27.10;73.10;;;;;;5082079;28;20528;-79
2022/07/02 13:03:50;;;;;;;2.87;1.33;;;27.00;72.60;;;;;;5079760;28;20498;-80
2022/07/02 13:06:18;;;;;;;6.10;1.60;;;27.00;72.60;;;;;;5079935;28;20445;-80
2022/07/02 13:08:46;;;;;;;2.60;1.60;;;26.90;72.10;;;;;;5080340;28;20477;-80